Time;durP1;ratioP1;P1;durP2;ratioP2;P2;SDS_P1;SDS_P2;PMS_P1;PMS_P2;Temp;Humidity;BMP_temperature;BMP_pressure;BME280_temperature;BME280_humidity;BME280_pressure;Samples;Min_cycle;Max_cycle;Signal;HPM_P1;HPM_P2
2024/02/29 00:03:02;;;;;;;;;;;;;;;13.02;81.01;99399.21;68425;1279;1015685;-70
2024/02/29 00:06:05;;;;;;;;;;;;;;;12.83;81.43;99397.42;68399;1280;1015761;-71
2024/02/29 00:09:08;;;;;;;;;;;;;;;12.80;81.12;99397.45;68414;1280;1015832;-70
2024/02/29 00:12:11;;;;;;;;;;;;;;;12.56;81.80;99398.71;68418;1279;1015671;-70
2024/02/29 00:15:14;;;;;;;;;;;;;;;12.67;81.58;99395.77;68395;1280;1015287;-70
2024/02/29 00:18:16;;;;;;;;;;;;;;;12.59;81.91;99396.41;68419;1280;1015617;-70
2024/02/29 00:21:19;;;;;;;;;;;;;;;12.61;81.34;99395.41;68408;1280;1015876;-70
2024/02/29 00:24:21;;;;;;;;;;;;;;;12.62;81.41;99400.98;68400;1279;1016211;-71
2024/02/29 00:27:25;;;;;;;;;;;;;;;12.67;80.49;99399.96;68420;1280;1015231;-71
2024/02/29 00:30:28;;;;;;;;;;;;;;;12.58;80.77;99403.14;68424;1280;1015432;-70
2024/02/29 00:33:30;;;;;;;;;;;;;;;12.53;80.05;99405.70;68418;1280;1015256;-69
2024/02/29 00:36:33;;;;;;;;;;;;;;;12.58;79.49;99405.59;68391;1280;1015918;-70
2024/02/29 00:39:36;;;;;;;;;;;;;;;12.73;78.28;99408.92;68408;1280;1015744;-71
2024/02/29 00:42:38;;;;;;;;;;;;;;;12.76;77.72;99404.68;68408;1280;1015519;-70
2024/02/29 00:45:41;;;;;;;;;;;;;;;12.82;76.74;99404.18;68404;1280;1015707;-69
2024/02/29 00:48:43;;;;;;;;;;;;;;;12.79;77.09;99405.91;68394;1280;1014225;-70
2024/02/29 00:51:46;;;;;;;;;;;;;;;12.68;77.34;99409.21;68404;1279;1015334;-70
2024/02/29 00:54:49;;;;;;;;;;;;;;;12.67;77.47;99411.55;68398;1279;1015723;-70
2024/02/29 00:57:52;;;;;;;;;;;;;;;12.70;77.13;99412.09;68419;1280;1015306;-70
2024/02/29 01:00:55;;;;;;;;;;;;;;;12.63;77.23;99409.70;68429;1280;1015580;-69
2024/02/29 01:03:58;;;;;;;;;;;;;;;12.52;77.84;99405.48;68403;1280;1015853;-71
2024/02/29 01:07:00;;;;;;;;;;;;;;;12.48;78.30;99402.66;68410;1280;1016179;-70
2024/02/29 01:10:05;;;;;;;;;;;;;;;12.44;78.48;99407.77;68420;1279;1016055;-70
2024/02/29 01:13:08;;;;;;;;;;;;;;;12.50;78.66;99401.36;68404;1279;1015462;-71
2024/02/29 01:16:10;;;;;;;;;;;;;;;12.51;78.53;99396.03;68412;1279;1015793;-70
2024/02/29 01:19:13;;;;;;;;;;;;;;;12.49;78.18;99397.70;68411;1279;1016032;-70
2024/02/29 01:22:16;;;;;;;;;;;;;;;12.45;78.19;99391.62;68394;1280;1015604;-71
2024/02/29 01:25:18;;;;;;;;;;;;;;;12.40;78.19;99394.21;68387;1280;1015918;-70
2024/02/29 01:28:21;;;;;;;;;;;;;;;12.55;77.71;99397.35;68411;1280;1015650;-70
2024/02/29 01:31:24;;;;;;;;;;;;;;;12.65;76.92;99401.70;68427;1279;1015824;-69
2024/02/29 01:34:26;;;;;;;;;;;;;;;12.70;76.66;99404.17;68412;1279;1015688;-71
2024/02/29 01:37:29;;;;;;;;;;;;;;;12.69;76.77;99404.06;68395;1279;1015585;-71
2024/02/29 01:40:32;;;;;;;;;;;;;;;12.66;76.42;99403.52;68402;1279;1014850;-71
2024/02/29 01:43:34;;;;;;;;;;;;;;;12.70;76.66;99398.23;68425;1279;1015695;-70
2024/02/29 01:46:37;;;;;;;;;;;;;;;12.64;77.04;99398.54;68395;1279;1015379;-71
2024/02/29 01:49:39;;;;;;;;;;;;;;;12.72;77.31;99398.60;68397;1279;1015716;-70
2024/02/29 01:52:42;;;;;;;;;;;;;;;12.79;75.70;99399.59;68398;1279;1015270;-71
2024/02/29 01:55:44;;;;;;;;;;;;;;;12.67;76.14;99400.14;68399;1279;1015293;-71
2024/02/29 01:58:47;;;;;;;;;;;;;;;12.61;76.86;99391.92;68396;1279;1015280;-70
2024/02/29 02:01:50;;;;;;;;;;;;;;;12.55;77.31;99394.91;68403;1279;1016104;-70
2024/02/29 02:04:52;;;;;;;;;;;;;;;12.61;77.15;99401.38;68427;1279;1016112;-71
2024/02/29 02:07:55;;;;;;;;;;;;;;;12.67;76.63;99400.52;68408;1279;1015994;-71
2024/02/29 02:10:58;;;;;;;;;;;;;;;12.60;76.84;99400.55;68393;1280;1015862;-71
2024/02/29 02:14:00;;;;;;;;;;;;;;;12.50;77.93;99401.70;68414;1279;1015379;-70
2024/02/29 02:17:03;;;;;;;;;;;;;;;12.57;77.63;99399.88;68403;1279;1016179;-71
2024/02/29 02:20:05;;;;;;;;;;;;;;;12.59;77.90;99399.40;68407;1280;1016051;-70
2024/02/29 02:23:08;;;;;;;;;;;;;;;12.73;77.23;99401.54;68398;1279;1016177;-70
2024/02/29 02:26:10;;;;;;;;;;;;;;;12.77;77.69;99403.04;68412;1279;1015737;-70
2024/02/29 02:29:13;;;;;;;;;;;;;;;12.87;77.44;99400.35;68404;1279;1015721;-70
2024/02/29 02:32:16;;;;;;;;;;;;;;;12.96;76.74;99395.06;68407;1279;1015486;-71
2024/02/29 02:35:18;;;;;;;;;;;;;;;13.07;75.58;99395.23;68410;1280;1015566;-71
2024/02/29 02:38:21;;;;;;;;;;;;;;;13.16;75.01;99392.58;68397;1279;1015776;-71
2024/02/29 02:41:24;;;;;;;;;;;;;;;13.30;74.67;99396.08;68375;1279;1015659;-70
2024/02/29 02:44:26;;;;;;;;;;;;;;;13.58;74.18;99393.44;68389;1279;1016346;-70
2024/02/29 02:47:30;;;;;;;;;;;;;;;13.67;73.77;99394.96;68400;1279;1015716;-71
2024/02/29 02:50:32;;;;;;;;;;;;;;;13.61;73.76;99393.45;68391;1279;1015707;-70
2024/02/29 02:53:35;;;;;;;;;;;;;;;13.48;73.89;99393.05;68417;1279;1016018;-70
2024/02/29 02:56:37;;;;;;;;;;;;;;;13.48;74.08;99394.84;68397;1279;1014314;-70
2024/02/29 02:59:40;;;;;;;;;;;;;;;13.68;72.76;99391.60;68400;1279;1015262;-71
2024/02/29 03:02:44;;;;;;;;;;;;;;;13.44;72.52;99392.45;68402;1279;1016140;-70
2024/02/29 03:05:47;;;;;;;;;;;;;;;13.41;72.72;99391.05;68404;1279;1015370;-71
2024/02/29 03:08:49;;;;;;;;;;;;;;;13.30;72.86;99384.87;68410;1279;1015238;-70
2024/02/29 03:11:52;;;;;;;;;;;;;;;13.21;73.42;99385.08;68413;1279;1015977;-70
2024/02/29 03:14:55;;;;;;;;;;;;;;;13.34;73.43;99386.89;68392;1279;1015758;-71
2024/02/29 03:17:57;;;;;;;;;;;;;;;13.40;72.43;99386.72;68407;1279;1015384;-70
2024/02/29 03:21:02;;;;;;;;;;;;;;;13.29;72.80;99389.16;68387;1279;1015404;-71
2024/02/29 03:24:04;;;;;;;;;;;;;;;13.35;72.64;99395.10;68396;1279;1015415;-71
2024/02/29 03:27:07;;;;;;;;;;;;;;;13.37;72.87;99398.14;68391;1279;1015933;-71
2024/02/29 03:30:10;;;;;;;;;;;;;;;13.51;72.09;99390.94;68406;1279;1015446;-70
2024/02/29 03:33:12;;;;;;;;;;;;;;;13.50;71.94;99388.38;68409;1279;1015352;-70
2024/02/29 03:36:15;;;;;;;;;;;;;;;13.37;72.76;99387.40;68404;1279;1015697;-71
2024/02/29 03:39:18;;;;;;;;;;;;;;;13.37;72.46;99385.30;68403;1279;1015493;-71
2024/02/29 03:42:20;;;;;;;;;;;;;;;13.26;72.39;99383.91;68409;1279;1015480;-71
2024/02/29 03:45:24;;;;;;;;;;;;;;;13.10;72.60;99381.04;68413;1279;1014450;-71
2024/02/29 03:48:27;;;;;;;;;;;;;;;12.97;73.08;99378.69;68406;1279;1015690;-71
2024/02/29 03:51:30;;;;;;;;;;;;;;;12.98;72.97;99383.86;68404;1279;1015270;-71
2024/02/29 03:54:33;;;;;;;;;;;;;;;12.79;73.54;99385.69;68394;1279;1016084;-71
2024/02/29 03:57:35;;;;;;;;;;;;;;;12.71;73.42;99383.44;68407;1279;1015947;-70
2024/02/29 04:00:38;;;;;;;;;;;;;;;12.69;73.33;99381.77;68391;1279;1015308;-71
2024/02/29 04:03:41;;;;;;;;;;;;;;;12.61;73.82;99376.52;68387;1279;1015823;-71
2024/02/29 04:06:43;;;;;;;;;;;;;;;12.49;74.50;99376.46;68406;1279;1015834;-67
2024/02/29 04:09:46;;;;;;;;;;;;;;;12.36;75.05;99373.05;68397;1279;1015689;-71
2024/02/29 04:12:48;;;;;;;;;;;;;;;12.36;75.03;99370.40;68396;1279;1015909;-65
2024/02/29 04:15:51;;;;;;;;;;;;;;;12.34;75.11;99372.14;68407;1279;1016224;-70
2024/02/29 04:18:54;;;;;;;;;;;;;;;12.32;75.12;99371.16;68389;1279;1016024;-71
2024/02/29 04:21:56;;;;;;;;;;;;;;;12.27;75.79;99368.84;68412;1279;1015484;-71
2024/02/29 04:24:59;;;;;;;;;;;;;;;12.41;75.18;99375.91;68400;1279;1016087;-71
2024/02/29 04:28:01;;;;;;;;;;;;;;;12.54;75.02;99380.04;68397;1279;1015886;-71
2024/02/29 04:31:04;;;;;;;;;;;;;;;12.62;74.76;99384.81;68421;1279;1016026;-71
2024/02/29 04:34:07;;;;;;;;;;;;;;;12.68;74.83;99383.42;68409;1279;1015682;-71
2024/02/29 04:37:09;;;;;;;;;;;;;;;12.79;74.82;99382.05;68388;1279;1015380;-70
2024/02/29 04:40:12;;;;;;;;;;;;;;;12.88;74.51;99380.66;68396;1279;1015194;-70
2024/02/29 04:43:16;;;;;;;;;;;;;;;12.94;74.54;99382.89;68433;1279;1016439;-69
2024/02/29 04:46:19;;;;;;;;;;;;;;;13.08;74.42;99375.87;68413;1279;1016980;-71
2024/02/29 04:49:22;;;;;;;;;;;;;;;13.14;73.76;99371.27;68420;1279;1015424;-70
2024/02/29 04:52:24;;;;;;;;;;;;;;;13.23;73.32;99372.67;68426;1279;1015543;-70
2024/02/29 04:55:27;;;;;;;;;;;;;;;13.22;73.74;99371.52;68399;1279;1015337;-71
2024/02/29 04:58:30;;;;;;;;;;;;;;;13.23;73.06;99371.76;68402;1279;1015765;-70
2024/02/29 05:01:32;;;;;;;;;;;;;;;13.12;72.92;99368.59;68401;1279;1015856;-70
2024/02/29 05:04:35;;;;;;;;;;;;;;;12.97;73.36;99367.41;68407;1279;1015874;-70
2024/02/29 05:07:38;;;;;;;;;;;;;;;12.93;73.52;99371.40;68404;1279;1015863;-70
2024/02/29 05:10:41;;;;;;;;;;;;;;;12.91;73.98;99376.41;68388;1279;1015324;-70
2024/02/29 05:13:44;;;;;;;;;;;;;;;13.10;73.22;99371.92;68404;1279;1015277;-70
2024/02/29 05:16:46;;;;;;;;;;;;;;;13.16;73.08;99374.83;68399;1279;1015768;-71
2024/02/29 05:19:49;;;;;;;;;;;;;;;13.19;73.11;99370.66;68402;1279;1015263;-71
2024/02/29 05:22:53;;;;;;;;;;;;;;;13.27;72.82;99378.05;68387;1279;1016031;-70
2024/02/29 05:25:56;;;;;;;;;;;;;;;13.32;72.43;99372.11;68401;1279;1015433;-70
2024/02/29 05:28:59;;;;;;;;;;;;;;;13.38;71.97;99371.73;68411;1279;1016048;-70
2024/02/29 05:32:02;;;;;;;;;;;;;;;13.36;72.13;99370.61;68408;1279;1015492;-71
2024/02/29 05:35:05;;;;;;;;;;;;;;;13.40;71.10;99367.37;68409;1279;1015579;-71
2024/02/29 05:38:07;;;;;;;;;;;;;;;13.32;71.27;99377.20;68407;1279;1015737;-71
2024/02/29 05:41:10;;;;;;;;;;;;;;;13.30;71.34;99370.99;68418;1279;1015950;-70
2024/02/29 05:44:12;;;;;;;;;;;;;;;13.31;71.27;99375.17;68405;1279;1016033;-71
2024/02/29 05:47:15;;;;;;;;;;;;;;;13.20;72.20;99376.56;68414;1279;1015380;-71
2024/02/29 05:50:18;;;;;;;;;;;;;;;13.16;72.54;99378.52;68412;1279;1016027;-70
2024/02/29 05:53:21;;;;;;;;;;;;;;;13.06;72.14;99377.91;68393;1279;1015969;-71
2024/02/29 05:56:24;;;;;;;;;;;;;;;12.98;71.92;99380.16;68394;1279;1015292;-70
2024/02/29 05:59:27;;;;;;;;;;;;;;;12.95;72.69;99384.59;68391;1279;1015277;-69
2024/02/29 06:02:30;;;;;;;;;;;;;;;13.09;72.41;99385.28;68432;1279;1015459;-70
2024/02/29 06:05:35;;;;;;;;;;;;;;;13.08;72.25;99378.30;68410;1279;1015465;-70
2024/02/29 06:08:37;;;;;;;;;;;;;;;13.18;72.06;99375.94;68390;1279;1015910;-71
2024/02/29 06:11:40;;;;;;;;;;;;;;;13.17;72.36;99375.10;68416;1279;1015644;-71
2024/02/29 06:14:43;;;;;;;;;;;;;;;13.21;72.57;99373.31;68401;1279;1015674;-71
2024/02/29 06:17:45;;;;;;;;;;;;;;;13.26;72.52;99373.17;68411;1279;1015150;-71
2024/02/29 06:20:48;;;;;;;;;;;;;;;13.14;72.67;99372.70;68419;1279;1015247;-71
2024/02/29 06:23:50;;;;;;;;;;;;;;;12.89;73.14;99368.79;68409;1279;1016119;-71
2024/02/29 06:26:53;;;;;;;;;;;;;;;12.82;73.74;99371.54;68399;1279;1015121;-71
2024/02/29 06:29:55;;;;;;;;;;;;;;;12.75;73.76;99370.02;68424;1279;1015633;-70
2024/02/29 06:32:58;;;;;;;;;;;;;;;12.63;74.19;99367.23;68395;1279;1016117;-70
2024/02/29 06:36:01;;;;;;;;;;;;;;;12.44;75.36;99369.23;68404;1279;1015971;-71
2024/02/29 06:39:07;;;;;;;;;;;;;;;12.32;75.87;99367.16;68431;1279;1015516;-70
2024/02/29 06:42:10;;;;;;;;;;;;;;;12.31;76.00;99373.19;68401;1279;1016045;-71
2024/02/29 06:45:12;;;;;;;;;;;;;;;12.47;76.26;99376.08;68416;1279;1016041;-70
2024/02/29 06:48:15;;;;;;;;;;;;;;;12.63;76.00;99377.41;68421;1279;1016033;-71
2024/02/29 06:51:18;;;;;;;;;;;;;;;12.73;75.60;99378.70;68420;1279;1015566;-71
2024/02/29 06:54:21;;;;;;;;;;;;;;;12.84;75.01;99378.75;68410;1279;1016330;-70
2024/02/29 06:57:23;;;;;;;;;;;;;;;12.94;75.09;99377.29;68417;1279;1015820;-70
2024/02/29 07:00:26;;;;;;;;;;;;;;;13.09;74.33;99377.91;68415;1279;1016066;-70
2024/02/29 07:03:29;;;;;;;;;;;;;;;13.22;74.14;99376.77;68411;1279;1015241;-71
2024/02/29 07:06:31;;;;;;;;;;;;;;;13.30;73.63;99375.56;68425;1279;1015438;-70
2024/02/29 07:09:34;;;;;;;;;;;;;;;13.41;72.90;99378.41;68442;1279;1015272;-70
2024/02/29 07:12:37;;;;;;;;;;;;;;;13.34;73.41;99378.85;68424;1279;1015941;-70
2024/02/29 07:15:39;;;;;;;;;;;;;;;13.40;73.90;99376.39;68410;1279;1015841;-71
2024/02/29 07:18:42;;;;;;;;;;;;;;;13.52;73.95;99385.06;68419;1279;1016004;-70
2024/02/29 07:21:44;;;;;;;;;;;;;;;13.64;73.40;99379.73;68409;1279;1015971;-70
2024/02/29 07:24:47;;;;;;;;;;;;;;;13.71;73.17;99380.91;68416;1279;1015959;-71
2024/02/29 07:27:50;;;;;;;;;;;;;;;13.79;73.30;99382.62;68434;1279;1015762;-70
2024/02/29 07:30:52;;;;;;;;;;;;;;;13.87;73.06;99381.95;68412;1279;1015668;-70
2024/02/29 07:33:55;;;;;;;;;;;;;;;14.01;72.48;99382.98;68408;1279;1015656;-70
2024/02/29 07:36:58;;;;;;;;;;;;;;;14.08;72.30;99380.56;68428;1279;1015406;-70
2024/02/29 07:40:01;;;;;;;;;;;;;;;14.25;72.10;99381.58;68411;1279;1015830;-70
2024/02/29 07:43:03;;;;;;;;;;;;;;;14.32;71.51;99377.89;68415;1279;1015545;-71
2024/02/29 07:46:06;;;;;;;;;;;;;;;14.36;71.52;99385.36;68407;1279;1015343;-70
2024/02/29 07:49:09;;;;;;;;;;;;;;;14.28;71.97;99379.61;68411;1279;1015522;-70
2024/02/29 07:52:11;;;;;;;;;;;;;;;14.41;72.57;99379.23;68411;1279;1015426;-70
2024/02/29 07:55:16;;;;;;;;;;;;;;;14.65;71.01;99375.17;68440;1279;1015018;-70
2024/02/29 07:58:19;;;;;;;;;;;;;;;14.74;71.37;99381.95;68429;1279;1015716;-70
2024/02/29 08:01:21;;;;;;;;;;;;;;;15.05;70.10;99376.43;68441;1279;1015990;-70
2024/02/29 08:04:24;;;;;;;;;;;;;;;15.18;69.30;99374.08;65841;1279;6377635;-70
2024/02/29 08:07:26;;;;;;;;;;;;;;;15.26;69.23;99376.70;68421;1279;1015570;-70
2024/02/29 08:10:29;;;;;;;;;;;;;;;15.25;69.71;99373.42;68410;1279;1015954;-70
2024/02/29 08:13:31;;;;;;;;;;;;;;;15.33;68.73;99369.83;68422;1279;1015476;-71
2024/02/29 08:16:35;;;;;;;;;;;;;;;15.39;68.89;99366.12;68419;1279;1015717;-70
2024/02/29 08:19:38;;;;;;;;;;;;;;;15.48;68.48;99361.05;68437;1279;1016062;-70
2024/02/29 08:22:40;;;;;;;;;;;;;;;15.53;68.73;99361.23;68406;1279;1015914;-71
2024/02/29 08:25:43;;;;;;;;;;;;;;;15.48;68.66;99362.95;68409;1279;1015640;-70
2024/02/29 08:28:46;;;;;;;;;;;;;;;15.43;69.05;99366.66;68413;1279;1015367;-70
2024/02/29 08:31:50;;;;;;;;;;;;;;;15.46;68.76;99361.04;68428;1279;1015581;-69
2024/02/29 08:35:01;;;;;;;;;;;;;;;15.62;68.64;99361.63;68375;1279;1016281;-70
2024/02/29 08:38:04;;;;;;;;;;;;;;;15.56;68.60;99359.92;68420;1279;1015520;-70
2024/02/29 08:41:06;;;;;;;;;;;;;;;15.51;69.51;99357.77;68345;1281;1015633;-70
2024/02/29 08:44:09;;;;;;;;;;;;;;;15.57;69.55;99358.08;68362;1281;1015989;-70
2024/02/29 08:47:12;;;;;;;;;;;;;;;15.62;69.65;99363.21;68359;1281;1015571;-70
2024/02/29 08:50:14;;;;;;;;;;;;;;;15.56;69.90;99364.14;68355;1281;1015520;-70
2024/02/29 08:53:17;;;;;;;;;;;;;;;15.62;69.84;99359.66;68341;1281;1015959;-69
2024/02/29 08:56:19;;;;;;;;;;;;;;;15.67;69.82;99357.39;68355;1281;1016110;-70
2024/02/29 08:59:22;;;;;;;;;;;;;;;15.72;69.25;99358.77;68347;1281;1015811;-70
2024/02/29 09:02:25;;;;;;;;;;;;;;;15.75;68.84;99365.08;68365;1281;1015570;-70
2024/02/29 09:05:27;;;;;;;;;;;;;;;15.71;69.10;99364.50;68346;1280;1015233;-70
2024/02/29 09:08:30;;;;;;;;;;;;;;;15.68;68.84;99367.02;68348;1280;1016059;-69
2024/02/29 09:11:33;;;;;;;;;;;;;;;15.61;69.04;99363.81;68363;1281;1015944;-70
2024/02/29 09:14:36;;;;;;;;;;;;;;;15.62;69.28;99361.44;68342;1281;1015558;-70
2024/02/29 09:17:38;;;;;;;;;;;;;;;15.64;69.08;99358.11;68360;1281;1014232;-70
2024/02/29 09:20:41;;;;;;;;;;;;;;;15.65;69.63;99355.58;68349;1281;1015238;-70
2024/02/29 09:23:44;;;;;;;;;;;;;;;15.72;70.23;99353.11;68361;1281;1015494;-70
2024/02/29 09:26:46;;;;;;;;;;;;;;;15.87;69.65;99349.05;68361;1281;1015980;-70
2024/02/29 09:29:49;;;;;;;;;;;;;;;16.04;69.32;99343.77;68359;1281;1016586;-67
2024/02/29 09:32:53;;;;;;;;;;;;;;;16.27;67.80;99337.42;68360;1281;1015874;-69
2024/02/29 09:35:57;;;;;;;;;;;;;;;16.34;67.99;99333.31;68351;1281;1015187;-69
2024/02/29 09:39:00;;;;;;;;;;;;;;;16.54;67.26;99336.76;68375;1279;1015810;-70
2024/02/29 09:42:03;;;;;;;;;;;;;;;16.61;67.11;99335.84;68438;1279;1015808;-70
2024/02/29 09:45:05;;;;;;;;;;;;;;;16.66;66.08;99337.98;68420;1279;1016017;-70
2024/02/29 09:48:08;;;;;;;;;;;;;;;16.52;66.55;99338.69;68439;1279;1015748;-70
2024/02/29 09:51:11;;;;;;;;;;;;;;;16.52;66.74;99335.85;68431;1279;1015480;-70
2024/02/29 09:54:14;;;;;;;;;;;;;;;16.51;67.01;99335.70;68432;1279;1015822;-70
2024/02/29 09:57:16;;;;;;;;;;;;;;;16.48;67.24;99335.80;68428;1279;1016710;-70
2024/02/29 10:00:20;;;;;;;;;;;;;;;16.42;66.60;99331.11;68428;1279;1016002;-70
2024/02/29 10:03:23;;;;;;;;;;;;;;;16.26;67.31;99330.27;68423;1279;1015048;-70
2024/02/29 10:06:25;;;;;;;;;;;;;;;16.21;67.89;99329.92;68429;1279;1015715;-70
2024/02/29 10:09:30;;;;;;;;;;;;;;;16.21;68.19;99328.33;68428;1279;1015332;-70
2024/02/29 10:12:32;;;;;;;;;;;;;;;16.08;68.43;99332.16;68436;1279;1015529;-70
2024/02/29 10:15:35;;;;;;;;;;;;;;;15.97;68.85;99330.69;68436;1279;1016201;-70
2024/02/29 10:18:38;;;;;;;;;;;;;;;15.96;69.66;99330.05;68427;1279;1015296;-70
2024/02/29 10:21:40;;;;;;;;;;;;;;;16.16;69.25;99318.48;68433;1279;1015958;-70
2024/02/29 10:24:43;;;;;;;;;;;;;;;16.33;69.10;99317.05;68439;1279;1015257;-70
2024/02/29 10:27:45;;;;;;;;;;;;;;;16.51;69.05;99315.29;68452;1279;1015609;-70
2024/02/29 10:30:48;;;;;;;;;;;;;;;16.77;68.03;99309.89;68430;1279;1016049;-69
2024/02/29 10:33:50;;;;;;;;;;;;;;;16.92;66.73;99307.47;68422;1279;1015003;-66
2024/02/29 10:36:53;;;;;;;;;;;;;;;16.91;66.47;99301.39;68431;1279;1015310;-70
2024/02/29 10:39:56;;;;;;;;;;;;;;;16.91;66.36;99295.58;68425;1279;1014934;-70
2024/02/29 10:42:59;;;;;;;;;;;;;;;16.86;66.15;99291.69;68438;1279;1015533;-70
2024/02/29 10:46:02;;;;;;;;;;;;;;;16.87;66.36;99284.73;68436;1279;1016260;-70
2024/02/29 10:49:04;;;;;;;;;;;;;;;17.07;66.10;99286.34;68446;1279;1015043;-70
2024/02/29 10:52:07;;;;;;;;;;;;;;;17.22;65.28;99284.29;68440;1279;1015621;-70
2024/02/29 10:55:10;;;;;;;;;;;;;;;17.08;65.13;99286.45;68431;1279;1015650;-70
2024/02/29 10:58:12;;;;;;;;;;;;;;;16.89;66.29;99279.40;68434;1280;1016037;-70
2024/02/29 11:01:15;;;;;;;;;;;;;;;17.13;65.24;99276.95;68421;1280;1015270;-70
2024/02/29 11:04:17;;;;;;;;;;;;;;;17.22;64.96;99272.45;68423;1279;1015969;-70
2024/02/29 11:07:20;;;;;;;;;;;;;;;17.30;64.06;99270.50;68454;1280;1016290;-70
2024/02/29 11:10:23;;;;;;;;;;;;;;;17.19;63.81;99267.66;68432;1279;1016148;-70
2024/02/29 11:13:25;;;;;;;;;;;;;;;17.10;64.07;99266.89;68437;1279;1016154;-70
2024/02/29 11:16:28;;;;;;;;;;;;;;;17.14;63.96;99261.76;68435;1279;1015943;-70
2024/02/29 11:19:30;;;;;;;;;;;;;;;17.05;64.32;99253.13;68429;1279;1015862;-70
2024/02/29 11:22:33;;;;;;;;;;;;;;;17.14;64.48;99249.73;68446;1279;1015995;-70
2024/02/29 11:25:36;;;;;;;;;;;;;;;17.20;64.24;99243.95;68427;1279;1016078;-70
2024/02/29 11:28:39;;;;;;;;;;;;;;;17.21;64.50;99236.98;68455;1279;1015555;-70
2024/02/29 11:31:43;;;;;;;;;;;;;;;17.26;63.39;99232.33;68435;1279;1015627;-70
2024/02/29 11:34:45;;;;;;;;;;;;;;;17.44;63.59;99230.71;68417;1280;1016306;-70
2024/02/29 11:37:48;;;;;;;;;;;;;;;17.51;62.69;99224.44;68425;1279;1015781;-70
2024/02/29 11:40:51;;;;;;;;;;;;;;;17.50;62.58;99215.67;68361;1281;1015641;-69
2024/02/29 11:43:54;;;;;;;;;;;;;;;17.48;63.22;99210.17;68346;1281;1015271;-70
2024/02/29 11:46:57;;;;;;;;;;;;;;;17.56;63.03;99206.50;68341;1281;1015896;-69
2024/02/29 11:50:00;;;;;;;;;;;;;;;17.72;63.41;99206.80;68338;1281;1015191;-69
2024/02/29 11:53:02;;;;;;;;;;;;;;;17.89;62.88;99200.61;68335;1281;1015089;-70
2024/02/29 11:56:05;;;;;;;;;;;;;;;17.97;62.48;99201.88;68340;1281;1015550;-69
2024/02/29 11:59:10;;;;;;;;;;;;;;;18.06;61.35;99196.45;68340;1281;1016221;-70
2024/02/29 12:02:12;;;;;;;;;;;;;;;18.01;61.32;99199.03;68366;1281;1014445;-70
2024/02/29 12:05:15;;;;;;;;;;;;;;;18.16;60.78;99196.85;68358;1281;1014811;-70
2024/02/29 12:08:17;;;;;;;;;;;;;;;18.40;59.94;99189.31;68346;1281;1016075;-69
2024/02/29 12:11:20;;;;;;;;;;;;;;;18.36;59.72;99182.54;68338;1281;1016106;-70
2024/02/29 12:14:23;;;;;;;;;;;;;;;18.17;60.07;99187.42;68336;1281;1016153;-69
2024/02/29 12:17:26;;;;;;;;;;;;;;;18.11;60.04;99184.73;68348;1281;1015826;-70
2024/02/29 12:20:29;;;;;;;;;;;;;;;18.07;60.80;99182.48;68341;1281;1015717;-70
2024/02/29 12:23:32;;;;;;;;;;;;;;;18.01;60.90;99174.95;68340;1281;1016164;-69
2024/02/29 12:26:34;;;;;;;;;;;;;;;17.84;60.97;99180.06;68344;1281;1015702;-70
2024/02/29 12:29:37;;;;;;;;;;;;;;;17.86;60.63;99183.98;68333;1281;1015931;-70
2024/02/29 12:32:39;;;;;;;;;;;;;;;17.74;61.29;99180.98;68350;1280;1015564;-70
2024/02/29 12:35:42;;;;;;;;;;;;;;;17.79;61.77;99172.02;68335;1281;1015865;-68
2024/02/29 12:38:45;;;;;;;;;;;;;;;17.96;61.46;99165.14;68334;1281;1015924;-70
2024/02/29 12:41:47;;;;;;;;;;;;;;;18.05;60.94;99164.20;68333;1281;1016278;-70
2024/02/29 12:44:50;;;;;;;;;;;;;;;18.04;60.78;99159.17;68332;1281;1014757;-70
2024/02/29 12:47:52;;;;;;;;;;;;;;;17.89;61.39;99155.08;68338;1281;1015815;-70
2024/02/29 12:50:55;;;;;;;;;;;;;;;17.87;61.22;99153.66;68340;1281;1014893;-70
2024/02/29 12:53:58;;;;;;;;;;;;;;;17.90;61.54;99148.67;68332;1281;1015741;-70
2024/02/29 12:57:00;;;;;;;;;;;;;;;17.96;61.20;99148.30;68340;1281;1016062;-70
2024/02/29 13:00:04;;;;;;;;;;;;;;;17.96;60.68;99148.50;68326;1281;1015888;-69
2024/02/29 13:03:07;;;;;;;;;;;;;;;18.04;61.14;99142.36;68344;1281;1015597;-70
2024/02/29 13:06:11;;;;;;;;;;;;;;;18.12;60.91;99139.90;68348;1281;1016637;-70
2024/02/29 13:09:13;;;;;;;;;;;;;;;17.91;61.15;99139.02;68347;1281;1015833;-69
2024/02/29 13:12:16;;;;;;;;;;;;;;;17.88;61.40;99136.63;68332;1281;1015456;-70
2024/02/29 13:15:18;;;;;;;;;;;;;;;17.88;60.78;99134.83;68337;1281;1015387;-70
2024/02/29 13:18:21;;;;;;;;;;;;;;;17.93;60.92;99133.34;68337;1281;1016505;-70
2024/02/29 13:21:23;;;;;;;;;;;;;;;17.78;61.01;99128.08;68341;1281;1015908;-70
2024/02/29 13:24:26;;;;;;;;;;;;;;;17.71;61.08;99121.66;68347;1281;1016146;-70
2024/02/29 13:27:28;;;;;;;;;;;;;;;17.79;60.99;99119.70;68340;1281;1016153;-69
2024/02/29 13:30:31;;;;;;;;;;;;;;;17.72;60.56;99115.70;68335;1281;1016014;-70
2024/02/29 13:33:33;;;;;;;;;;;;;;;17.62;61.43;99113.52;68338;1281;1015287;-70
2024/02/29 13:36:36;;;;;;;;;;;;;;;17.68;61.95;99115.85;68355;1281;1015270;-69
2024/02/29 13:39:38;;;;;;;;;;;;;;;17.76;61.75;99112.73;68391;1280;1015858;-70
2024/02/29 13:42:41;;;;;;;;;;;;;;;17.75;62.03;99113.46;68424;1280;1016005;-70
2024/02/29 13:45:44;;;;;;;;;;;;;;;17.67;61.96;99107.47;68438;1280;1016192;-70
2024/02/29 13:48:46;;;;;;;;;;;;;;;17.59;61.44;99100.17;68440;1279;1015974;-70
2024/02/29 13:51:49;;;;;;;;;;;;;;;17.56;61.76;99099.58;68434;1280;1016004;-70
2024/02/29 13:54:51;;;;;;;;;;;;;;;17.55;61.51;99098.06;68435;1280;1015508;-68
2024/02/29 13:57:54;;;;;;;;;;;;;;;17.55;61.03;99096.83;68443;1279;1016057;-70
2024/02/29 14:00:56;;;;;;;;;;;;;;;17.42;61.76;99099.27;68438;1279;1014493;-69
2024/02/29 14:03:59;;;;;;;;;;;;;;;17.34;62.24;99099.50;68431;1279;1015933;-69
2024/02/29 14:07:01;;;;;;;;;;;;;;;17.28;62.40;99099.46;68417;1280;1015579;-70
2024/02/29 14:10:04;;;;;;;;;;;;;;;17.24;61.96;99099.77;68424;1280;1015412;-69
2024/02/29 14:13:07;;;;;;;;;;;;;;;17.07;62.06;99096.08;68428;1279;1015862;-70
2024/02/29 14:16:10;;;;;;;;;;;;;;;17.11;62.03;99094.35;68441;1279;1014956;-70
2024/02/29 14:19:12;;;;;;;;;;;;;;;17.06;62.05;99088.73;68421;1280;1016212;-70
2024/02/29 14:22:15;;;;;;;;;;;;;;;16.80;62.88;99082.41;68445;1280;1014478;-70
2024/02/29 14:25:18;;;;;;;;;;;;;;;16.88;63.20;99080.67;68428;1280;1016236;-70
2024/02/29 14:28:22;;;;;;;;;;;;;;;16.90;62.59;99081.73;68428;1280;1015397;-70
2024/02/29 14:31:25;;;;;;;;;;;;;;;16.72;63.06;99079.53;68427;1279;1015844;-70
2024/02/29 14:34:27;;;;;;;;;;;;;;;16.48;64.10;99077.80;68444;1280;1016168;-70
2024/02/29 14:37:30;;;;;;;;;;;;;;;16.57;63.74;99073.85;68438;1279;1015281;-69
2024/02/29 14:40:33;;;;;;;;;;;;;;;16.54;64.06;99071.11;68420;1280;1016091;-70
2024/02/29 14:43:35;;;;;;;;;;;;;;;16.44;64.26;99071.14;68431;1280;1015378;-70
2024/02/29 14:46:38;;;;;;;;;;;;;;;16.51;64.24;99067.98;68420;1280;1015636;-70
2024/02/29 14:49:40;;;;;;;;;;;;;;;16.51;64.19;99065.17;68430;1280;1016005;-70
2024/02/29 14:52:43;;;;;;;;;;;;;;;16.38;65.07;99065.14;68416;1280;1016303;-70
2024/02/29 14:55:45;;;;;;;;;;;;;;;16.36;64.97;99065.13;68442;1280;1015490;-70
2024/02/29 14:58:48;;;;;;;;;;;;;;;16.40;64.85;99063.08;68435;1279;1015596;-70
2024/02/29 15:01:51;;;;;;;;;;;;;;;16.45;64.84;99056.95;68421;1280;1015849;-69
2024/02/29 15:04:53;;;;;;;;;;;;;;;16.41;64.76;99053.41;68434;1280;1015804;-70
2024/02/29 15:07:57;;;;;;;;;;;;;;;16.36;64.73;99047.16;68433;1280;1015613;-70
2024/02/29 15:11:00;;;;;;;;;;;;;;;16.27;65.02;99049.61;68426;1280;1016051;-70
2024/02/29 15:14:02;;;;;;;;;;;;;;;16.21;65.28;99047.08;68416;1280;1015931;-70
2024/02/29 15:17:05;;;;;;;;;;;;;;;16.18;65.44;99049.33;68427;1280;1015401;-70
2024/02/29 15:20:08;;;;;;;;;;;;;;;16.07;65.46;99047.13;68426;1280;1016045;-70
2024/02/29 15:23:11;;;;;;;;;;;;;;;16.17;65.21;99047.80;68425;1280;1015381;-70
2024/02/29 15:26:14;;;;;;;;;;;;;;;16.13;65.50;99045.48;68423;1280;1015657;-70
2024/02/29 15:29:16;;;;;;;;;;;;;;;16.07;65.76;99039.96;68419;1280;1015551;-70